sensor_id;sensor_type;location;lat;lon;timestamp;temperature;humidity
11569;DHT22;5840;46.894;15.542;2023-08-07T00:00:29;14.20;99.90
11569;DHT22;5840;46.894;15.542;2023-08-07T00:02:56;14.20;99.90
11569;DHT22;5840;46.894;15.542;2023-08-07T00:05:23;14.10;99.90
11569;DHT22;5840;46.894;15.542;2023-08-07T00:07:51;14.10;99.90
11569;DHT22;5840;46.894;15.542;2023-08-07T00:10:18;14.10;99.90
11569;DHT22;5840;46.894;15.542;2023-08-07T00:12:45;14.00;99.90
11569;DHT22;5840;46.894;15.542;2023-08-07T00:15:12;14.00;99.90
11569;DHT22;5840;46.894;15.542;2023-08-07T00:17:39;14.00;99.90
11569;DHT22;5840;46.894;15.542;2023-08-07T00:20:07;14.00;99.90
11569;DHT22;5840;46.894;15.542;2023-08-07T00:22:34;14.00;99.90
11569;DHT22;5840;46.894;15.542;2023-08-07T00:25:03;14.00;99.90
11569;DHT22;5840;46.894;15.542;2023-08-07T00:27:30;14.00;99.90
11569;DHT22;5840;46.894;15.542;2023-08-07T00:29:57;14.00;99.90
11569;DHT22;5840;46.894;15.542;2023-08-07T00:32:24;14.00;99.90
11569;DHT22;5840;46.894;15.542;2023-08-07T00:34:51;14.00;99.90
11569;DHT22;5840;46.894;15.542;2023-08-07T00:37:18;14.00;99.90
11569;DHT22;5840;46.894;15.542;2023-08-07T00:39:45;14.00;99.90
11569;DHT22;5840;46.894;15.542;2023-08-07T00:42:13;14.00;99.90
11569;DHT22;5840;46.894;15.542;2023-08-07T00:44:40;13.90;99.90
11569;DHT22;5840;46.894;15.542;2023-08-07T00:47:07;13.90;99.90
11569;DHT22;5840;46.894;15.542;2023-08-07T00:49:35;14.00;99.90
11569;DHT22;5840;46.894;15.542;2023-08-07T00:52:03;13.90;99.90
11569;DHT22;5840;46.894;15.542;2023-08-07T00:54:30;13.90;99.90
11569;DHT22;5840;46.894;15.542;2023-08-07T00:57:03;13.90;99.90
11569;DHT22;5840;46.894;15.542;2023-08-07T00:59:34;14.00;99.90
11569;DHT22;5840;46.894;15.542;2023-08-07T01:02:01;14.10;99.90
11569;DHT22;5840;46.894;15.542;2023-08-07T01:04:28;14.20;99.90
11569;DHT22;5840;46.894;15.542;2023-08-07T01:06:55;14.20;99.90
11569;DHT22;5840;46.894;15.542;2023-08-07T01:09:22;14.20;99.90
11569;DHT22;5840;46.894;15.542;2023-08-07T01:11:52;14.20;99.90
11569;DHT22;5840;46.894;15.542;2023-08-07T01:14:26;14.20;99.90
11569;DHT22;5840;46.894;15.542;2023-08-07T01:17:00;14.20;99.90
11569;DHT22;5840;46.894;15.542;2023-08-07T01:19:29;14.20;99.90
11569;DHT22;5840;46.894;15.542;2023-08-07T01:22:08;14.20;99.90
11569;DHT22;5840;46.894;15.542;2023-08-07T01:24:37;14.20;99.90
11569;DHT22;5840;46.894;15.542;2023-08-07T01:27:15;14.10;99.90
11569;DHT22;5840;46.894;15.542;2023-08-07T01:29:52;14.10;99.90
11569;DHT22;5840;46.894;15.542;2023-08-07T01:32:24;14.00;99.90
11569;DHT22;5840;46.894;15.542;2023-08-07T01:34:51;14.00;99.90
11569;DHT22;5840;46.894;15.542;2023-08-07T01:37:23;13.90;99.90
11569;DHT22;5840;46.894;15.542;2023-08-07T01:39:51;13.90;99.90
11569;DHT22;5840;46.894;15.542;2023-08-07T01:42:18;13.90;99.90
11569;DHT22;5840;46.894;15.542;2023-08-07T01:44:45;13.80;99.90
11569;DHT22;5840;46.894;15.542;2023-08-07T01:47:12;13.80;99.90
11569;DHT22;5840;46.894;15.542;2023-08-07T01:49:39;13.70;99.90
11569;DHT22;5840;46.894;15.542;2023-08-07T01:52:07;13.70;99.90
11569;DHT22;5840;46.894;15.542;2023-08-07T01:54:36;13.70;99.90
11569;DHT22;5840;46.894;15.542;2023-08-07T01:57:03;13.70;99.90
11569;DHT22;5840;46.894;15.542;2023-08-07T01:59:30;13.60;99.90
11569;DHT22;5840;46.894;15.542;2023-08-07T02:01:57;13.60;99.90
11569;DHT22;5840;46.894;15.542;2023-08-07T02:04:24;13.50;99.90
11569;DHT22;5840;46.894;15.542;2023-08-07T02:06:51;13.50;99.90
11569;DHT22;5840;46.894;15.542;2023-08-07T02:09:18;13.40;99.90
11569;DHT22;5840;46.894;15.542;2023-08-07T02:11:46;13.40;99.90
11569;DHT22;5840;46.894;15.542;2023-08-07T02:16:41;13.30;99.90
11569;DHT22;5840;46.894;15.542;2023-08-07T02:19:08;13.30;99.90
11569;DHT22;5840;46.894;15.542;2023-08-07T02:21:35;13.20;99.90
11569;DHT22;5840;46.894;15.542;2023-08-07T02:24:01;13.20;99.90
11569;DHT22;5840;46.894;15.542;2023-08-07T02:26:28;13.20;99.90
11569;DHT22;5840;46.894;15.542;2023-08-07T02:28:57;13.20;99.90
11569;DHT22;5840;46.894;15.542;2023-08-07T02:31:24;13.20;99.90
11569;DHT22;5840;46.894;15.542;2023-08-07T02:33:50;13.20;99.90
11569;DHT22;5840;46.894;15.542;2023-08-07T02:36:17;13.20;99.90
11569;DHT22;5840;46.894;15.542;2023-08-07T02:38:44;13.10;99.90
11569;DHT22;5840;46.894;15.542;2023-08-07T02:41:11;13.10;99.90
11569;DHT22;5840;46.894;15.542;2023-08-07T02:43:38;13.10;99.90
11569;DHT22;5840;46.894;15.542;2023-08-07T02:46:06;13.10;99.90
11569;DHT22;5840;46.894;15.542;2023-08-07T02:48:33;13.10;99.90
11569;DHT22;5840;46.894;15.542;2023-08-07T02:51:00;13.00;99.90
11569;DHT22;5840;46.894;15.542;2023-08-07T02:53:27;13.00;99.90
11569;DHT22;5840;46.894;15.542;2023-08-07T02:55:54;13.00;99.90
11569;DHT22;5840;46.894;15.542;2023-08-07T02:58:20;12.90;99.90
11569;DHT22;5840;46.894;15.542;2023-08-07T03:00:47;12.90;99.90
11569;DHT22;5840;46.894;15.542;2023-08-07T03:03:16;12.80;99.90
11569;DHT22;5840;46.894;15.542;2023-08-07T03:05:48;12.70;99.90
11569;DHT22;5840;46.894;15.542;2023-08-07T03:08:15;12.70;99.90
11569;DHT22;5840;46.894;15.542;2023-08-07T03:10:49;12.60;99.90
11569;DHT22;5840;46.894;15.542;2023-08-07T03:13:16;12.60;99.90
11569;DHT22;5840;46.894;15.542;2023-08-07T03:15:42;12.60;99.90
11569;DHT22;5840;46.894;15.542;2023-08-07T03:18:09;12.50;99.90
11569;DHT22;5840;46.894;15.542;2023-08-07T03:20:38;12.50;99.90
11569;DHT22;5840;46.894;15.542;2023-08-07T03:23:04;12.50;99.90
11569;DHT22;5840;46.894;15.542;2023-08-07T03:25:31;12.50;99.90
11569;DHT22;5840;46.894;15.542;2023-08-07T03:27:58;12.40;99.90
11569;DHT22;5840;46.894;15.542;2023-08-07T03:30:25;12.40;99.90
11569;DHT22;5840;46.894;15.542;2023-08-07T03:32:52;12.40;99.90
11569;DHT22;5840;46.894;15.542;2023-08-07T03:35:19;12.30;99.90
11569;DHT22;5840;46.894;15.542;2023-08-07T03:37:47;12.30;99.90
11569;DHT22;5840;46.894;15.542;2023-08-07T03:40:14;12.30;99.90
11569;DHT22;5840;46.894;15.542;2023-08-07T03:42:41;12.40;99.90
11569;DHT22;5840;46.894;15.542;2023-08-07T03:45:08;12.40;99.90
11569;DHT22;5840;46.894;15.542;2023-08-07T03:47:35;12.30;99.90
11569;DHT22;5840;46.894;15.542;2023-08-07T03:50:03;12.40;99.90
11569;DHT22;5840;46.894;15.542;2023-08-07T03:52:30;12.30;99.90
11569;DHT22;5840;46.894;15.542;2023-08-07T03:54:58;12.30;99.90
11569;DHT22;5840;46.894;15.542;2023-08-07T03:57:25;12.30;99.90
11569;DHT22;5840;46.894;15.542;2023-08-07T03:59:52;12.30;99.90
11569;DHT22;5840;46.894;15.542;2023-08-07T04:02:19;12.30;99.90
11569;DHT22;5840;46.894;15.542;2023-08-07T04:04:46;12.30;99.90
11569;DHT22;5840;46.894;15.542;2023-08-07T04:07:13;12.30;99.90
11569;DHT22;5840;46.894;15.542;2023-08-07T04:09:40;12.20;99.90
11569;DHT22;5840;46.894;15.542;2023-08-07T04:12:09;12.20;99.90
11569;DHT22;5840;46.894;15.542;2023-08-07T04:14:36;12.20;99.90
11569;DHT22;5840;46.894;15.542;2023-08-07T04:17:03;12.20;99.90
11569;DHT22;5840;46.894;15.542;2023-08-07T04:19:30;12.10;99.90
11569;DHT22;5840;46.894;15.542;2023-08-07T04:21:57;12.10;99.90
11569;DHT22;5840;46.894;15.542;2023-08-07T04:24:24;12.10;99.90
11569;DHT22;5840;46.894;15.542;2023-08-07T04:26:51;12.10;99.90
11569;DHT22;5840;46.894;15.542;2023-08-07T04:29:20;12.10;99.90
11569;DHT22;5840;46.894;15.542;2023-08-07T04:31:47;12.10;99.90
11569;DHT22;5840;46.894;15.542;2023-08-07T04:34:14;12.10;99.90
11569;DHT22;5840;46.894;15.542;2023-08-07T04:36:41;12.10;99.90
11569;DHT22;5840;46.894;15.542;2023-08-07T04:39:07;12.10;99.90
11569;DHT22;5840;46.894;15.542;2023-08-07T04:41:34;12.00;99.90
11569;DHT22;5840;46.894;15.542;2023-08-07T04:44:01;12.00;99.90
11569;DHT22;5840;46.894;15.542;2023-08-07T04:46:30;11.90;99.90
11569;DHT22;5840;46.894;15.542;2023-08-07T04:48:58;11.90;99.90
11569;DHT22;5840;46.894;15.542;2023-08-07T04:51:26;11.90;99.90
11569;DHT22;5840;46.894;15.542;2023-08-07T04:53:54;11.90;99.90
11569;DHT22;5840;46.894;15.542;2023-08-07T04:56:22;11.90;99.90
11569;DHT22;5840;46.894;15.542;2023-08-07T04:58:49;11.90;99.90
11569;DHT22;5840;46.894;15.542;2023-08-07T05:01:16;11.90;99.90
11569;DHT22;5840;46.894;15.542;2023-08-07T05:03:44;11.80;99.90
11569;DHT22;5840;46.894;15.542;2023-08-07T05:06:11;11.80;99.90
11569;DHT22;5840;46.894;15.542;2023-08-07T05:08:38;11.80;99.90
11569;DHT22;5840;46.894;15.542;2023-08-07T05:11:04;11.90;99.90
11569;DHT22;5840;46.894;15.542;2023-08-07T05:13:32;11.90;99.90
11569;DHT22;5840;46.894;15.542;2023-08-07T05:15:59;12.00;99.90
11569;DHT22;5840;46.894;15.542;2023-08-07T05:18:25;12.00;99.90
11569;DHT22;5840;46.894;15.542;2023-08-07T05:20:54;12.10;99.90
11569;DHT22;5840;46.894;15.542;2023-08-07T05:23:21;12.30;99.90
11569;DHT22;5840;46.894;15.542;2023-08-07T05:25:48;12.40;99.90
11569;DHT22;5840;46.894;15.542;2023-08-07T05:28:14;12.70;99.90
11569;DHT22;5840;46.894;15.542;2023-08-07T05:30:41;12.80;99.90
11569;DHT22;5840;46.894;15.542;2023-08-07T05:33:08;12.90;99.90
11569;DHT22;5840;46.894;15.542;2023-08-07T05:35:37;13.00;99.90
11569;DHT22;5840;46.894;15.542;2023-08-07T05:38:05;13.10;99.90
11569;DHT22;5840;46.894;15.542;2023-08-07T05:40:32;13.10;99.90
11569;DHT22;5840;46.894;15.542;2023-08-07T05:43:01;13.20;99.90
11569;DHT22;5840;46.894;15.542;2023-08-07T05:45:28;13.20;99.90
11569;DHT22;5840;46.894;15.542;2023-08-07T05:47:55;13.30;99.90
11569;DHT22;5840;46.894;15.542;2023-08-07T05:50:21;13.40;99.90
11569;DHT22;5840;46.894;15.542;2023-08-07T05:52:48;13.50;99.90
11569;DHT22;5840;46.894;15.542;2023-08-07T05:55:16;13.50;99.90
11569;DHT22;5840;46.894;15.542;2023-08-07T05:57:43;13.60;99.90
11569;DHT22;5840;46.894;15.542;2023-08-07T06:00:11;13.70;99.90
11569;DHT22;5840;46.894;15.542;2023-08-07T06:02:41;13.80;99.90
11569;DHT22;5840;46.894;15.542;2023-08-07T06:05:08;14.00;99.90
11569;DHT22;5840;46.894;15.542;2023-08-07T06:07:37;14.20;99.90
11569;DHT22;5840;46.894;15.542;2023-08-07T06:10:05;14.40;99.90
11569;DHT22;5840;46.894;15.542;2023-08-07T06:12:34;14.60;99.90
11569;DHT22;5840;46.894;15.542;2023-08-07T06:15:01;14.80;99.90
11569;DHT22;5840;46.894;15.542;2023-08-07T06:17:27;15.00;99.90
11569;DHT22;5840;46.894;15.542;2023-08-07T06:19:54;15.10;99.90
11569;DHT22;5840;46.894;15.542;2023-08-07T06:22:21;15.10;99.90
11569;DHT22;5840;46.894;15.542;2023-08-07T06:24:48;15.20;99.90
11569;DHT22;5840;46.894;15.542;2023-08-07T06:27:15;15.20;99.90
11569;DHT22;5840;46.894;15.542;2023-08-07T06:29:43;15.20;99.90
11569;DHT22;5840;46.894;15.542;2023-08-07T06:32:10;15.20;99.90
11569;DHT22;5840;46.894;15.542;2023-08-07T06:34:37;15.20;99.90
11569;DHT22;5840;46.894;15.542;2023-08-07T06:37:05;15.20;99.90
11569;DHT22;5840;46.894;15.542;2023-08-07T06:39:32;15.30;99.90
11569;DHT22;5840;46.894;15.542;2023-08-07T06:41:59;15.20;99.90
11569;DHT22;5840;46.894;15.542;2023-08-07T06:44:26;15.20;99.90
11569;DHT22;5840;46.894;15.542;2023-08-07T06:46:54;15.20;99.90
11569;DHT22;5840;46.894;15.542;2023-08-07T06:49:21;15.20;99.90
11569;DHT22;5840;46.894;15.542;2023-08-07T06:51:49;15.20;99.90
11569;DHT22;5840;46.894;15.542;2023-08-07T06:54:15;15.20;99.90
11569;DHT22;5840;46.894;15.542;2023-08-07T06:56:42;15.20;99.90
11569;DHT22;5840;46.894;15.542;2023-08-07T06:59:10;15.20;99.90
11569;DHT22;5840;46.894;15.542;2023-08-07T07:01:37;15.30;99.90
11569;DHT22;5840;46.894;15.542;2023-08-07T07:04:05;15.40;99.90
11569;DHT22;5840;46.894;15.542;2023-08-07T07:06:33;15.50;99.90
11569;DHT22;5840;46.894;15.542;2023-08-07T07:09:00;15.60;99.90
11569;DHT22;5840;46.894;15.542;2023-08-07T07:11:28;15.60;99.90
11569;DHT22;5840;46.894;15.542;2023-08-07T07:13:54;15.70;99.90
11569;DHT22;5840;46.894;15.542;2023-08-07T07:16:21;15.80;99.90
11569;DHT22;5840;46.894;15.542;2023-08-07T07:18:49;15.90;99.90
11569;DHT22;5840;46.894;15.542;2023-08-07T07:21:18;16.00;99.90
11569;DHT22;5840;46.894;15.542;2023-08-07T07:23:45;15.90;99.90
11569;DHT22;5840;46.894;15.542;2023-08-07T07:26:12;16.00;99.90
11569;DHT22;5840;46.894;15.542;2023-08-07T07:28:39;16.00;99.90
11569;DHT22;5840;46.894;15.542;2023-08-07T07:31:06;16.00;99.90
11569;DHT22;5840;46.894;15.542;2023-08-07T07:33:36;16.10;99.90
11569;DHT22;5840;46.894;15.542;2023-08-07T07:36:04;16.10;99.90
11569;DHT22;5840;46.894;15.542;2023-08-07T07:38:33;16.20;99.90
11569;DHT22;5840;46.894;15.542;2023-08-07T07:41:00;16.30;99.90
11569;DHT22;5840;46.894;15.542;2023-08-07T07:43:27;16.40;99.90
11569;DHT22;5840;46.894;15.542;2023-08-07T07:45:55;16.50;99.90
11569;DHT22;5840;46.894;15.542;2023-08-07T07:48:22;16.60;99.90
11569;DHT22;5840;46.894;15.542;2023-08-07T07:50:48;16.60;99.90
11569;DHT22;5840;46.894;15.542;2023-08-07T07:53:15;16.70;99.90
11569;DHT22;5840;46.894;15.542;2023-08-07T07:55:48;16.80;99.90
11569;DHT22;5840;46.894;15.542;2023-08-07T07:58:15;16.80;99.90
11569;DHT22;5840;46.894;15.542;2023-08-07T08:00:42;16.90;99.90
11569;DHT22;5840;46.894;15.542;2023-08-07T08:03:08;16.90;99.90
11569;DHT22;5840;46.894;15.542;2023-08-07T08:05:35;17.00;99.90
11569;DHT22;5840;46.894;15.542;2023-08-07T08:08:02;17.20;99.90
11569;DHT22;5840;46.894;15.542;2023-08-07T08:10:29;17.30;99.90
11569;DHT22;5840;46.894;15.542;2023-08-07T08:12:58;17.40;99.90
11569;DHT22;5840;46.894;15.542;2023-08-07T08:15:24;17.50;99.90
11569;DHT22;5840;46.894;15.542;2023-08-07T08:17:51;17.60;99.90
11569;DHT22;5840;46.894;15.542;2023-08-07T08:20:18;17.70;99.90
11569;DHT22;5840;46.894;15.542;2023-08-07T08:22:45;17.80;99.90
11569;DHT22;5840;46.894;15.542;2023-08-07T08:25:13;18.00;99.90
11569;DHT22;5840;46.894;15.542;2023-08-07T08:27:40;18.10;99.90
11569;DHT22;5840;46.894;15.542;2023-08-07T08:30:09;18.20;99.90
11569;DHT22;5840;46.894;15.542;2023-08-07T08:32:36;18.20;99.90
11569;DHT22;5840;46.894;15.542;2023-08-07T08:35:03;18.30;99.90
11569;DHT22;5840;46.894;15.542;2023-08-07T08:37:30;18.30;99.90
11569;DHT22;5840;46.894;15.542;2023-08-07T08:39:57;18.40;99.90
11569;DHT22;5840;46.894;15.542;2023-08-07T08:42:24;18.50;99.90
11569;DHT22;5840;46.894;15.542;2023-08-07T08:44:52;18.50;99.90
11569;DHT22;5840;46.894;15.542;2023-08-07T08:47:22;18.60;99.90
11569;DHT22;5840;46.894;15.542;2023-08-07T08:49:51;18.70;99.90
11569;DHT22;5840;46.894;15.542;2023-08-07T08:52:21;18.80;99.90
11569;DHT22;5840;46.894;15.542;2023-08-07T08:54:48;18.90;99.90
11569;DHT22;5840;46.894;15.542;2023-08-07T08:57:16;19.00;99.90
11569;DHT22;5840;46.894;15.542;2023-08-07T08:59:43;19.20;99.90
11569;DHT22;5840;46.894;15.542;2023-08-07T09:02:10;19.30;99.90
11569;DHT22;5840;46.894;15.542;2023-08-07T09:04:39;19.40;99.90
11569;DHT22;5840;46.894;15.542;2023-08-07T09:07:08;19.50;99.90
11569;DHT22;5840;46.894;15.542;2023-08-07T09:09:36;19.50;99.90
11569;DHT22;5840;46.894;15.542;2023-08-07T09:12:03;19.50;99.90
11569;DHT22;5840;46.894;15.542;2023-08-07T09:14:34;19.50;99.90
11569;DHT22;5840;46.894;15.542;2023-08-07T09:17:02;19.60;99.90
11569;DHT22;5840;46.894;15.542;2023-08-07T09:19:30;19.50;99.90
11569;DHT22;5840;46.894;15.542;2023-08-07T09:21:58;19.60;99.90
11569;DHT22;5840;46.894;15.542;2023-08-07T09:24:25;19.50;98.90
11569;DHT22;5840;46.894;15.542;2023-08-07T09:26:52;19.50;99.40
11569;DHT22;5840;46.894;15.542;2023-08-07T09:29:20;19.50;99.90
11569;DHT22;5840;46.894;15.542;2023-08-07T09:31:48;19.50;99.90
11569;DHT22;5840;46.894;15.542;2023-08-07T09:34:19;19.50;99.90
11569;DHT22;5840;46.894;15.542;2023-08-07T09:36:47;19.60;99.80
11569;DHT22;5840;46.894;15.542;2023-08-07T09:39:15;19.50;98.50
11569;DHT22;5840;46.894;15.542;2023-08-07T09:41:42;19.50;99.10
11569;DHT22;5840;46.894;15.542;2023-08-07T09:44:10;19.50;96.90
11569;DHT22;5840;46.894;15.542;2023-08-07T09:46:41;19.40;97.50
11569;DHT22;5840;46.894;15.542;2023-08-07T09:49:09;19.50;96.70
11569;DHT22;5840;46.894;15.542;2023-08-07T09:51:43;19.50;98.60
11569;DHT22;5840;46.894;15.542;2023-08-07T09:54:10;19.50;96.90
11569;DHT22;5840;46.894;15.542;2023-08-07T09:56:40;19.50;96.60
11569;DHT22;5840;46.894;15.542;2023-08-07T09:59:07;19.60;96.30
11569;DHT22;5840;46.894;15.542;2023-08-07T10:01:36;19.50;95.30
11569;DHT22;5840;46.894;15.542;2023-08-07T10:04:05;19.60;96.50
11569;DHT22;5840;46.894;15.542;2023-08-07T10:06:32;19.60;96.60
11569;DHT22;5840;46.894;15.542;2023-08-07T10:09:01;19.80;97.20
11569;DHT22;5840;46.894;15.542;2023-08-07T10:11:28;19.90;95.50
11569;DHT22;5840;46.894;15.542;2023-08-07T10:13:57;19.90;93.90
11569;DHT22;5840;46.894;15.542;2023-08-07T10:16:26;20.00;93.90
11569;DHT22;5840;46.894;15.542;2023-08-07T10:18:53;20.10;94.80
11569;DHT22;5840;46.894;15.542;2023-08-07T10:21:20;20.20;95.50
11569;DHT22;5840;46.894;15.542;2023-08-07T10:23:52;20.40;95.50
11569;DHT22;5840;46.894;15.542;2023-08-07T10:26:21;20.50;91.20
11569;DHT22;5840;46.894;15.542;2023-08-07T10:28:50;20.60;92.30
11569;DHT22;5840;46.894;15.542;2023-08-07T10:31:21;20.70;92.30
11569;DHT22;5840;46.894;15.542;2023-08-07T10:33:49;20.70;92.10
11569;DHT22;5840;46.894;15.542;2023-08-07T10:36:16;20.70;92.70
11569;DHT22;5840;46.894;15.542;2023-08-07T10:38:43;20.60;92.90
11569;DHT22;5840;46.894;15.542;2023-08-07T10:41:12;20.70;92.70
11569;DHT22;5840;46.894;15.542;2023-08-07T10:43:39;20.70;92.10
11569;DHT22;5840;46.894;15.542;2023-08-07T10:46:09;20.70;91.10
11569;DHT22;5840;46.894;15.542;2023-08-07T10:48:45;20.80;92.50
11569;DHT22;5840;46.894;15.542;2023-08-07T10:51:13;20.80;90.90
11569;DHT22;5840;46.894;15.542;2023-08-07T10:53:42;20.80;91.30
11569;DHT22;5840;46.894;15.542;2023-08-07T10:56:11;20.80;90.80
11569;DHT22;5840;46.894;15.542;2023-08-07T10:58:40;20.80;92.00
11569;DHT22;5840;46.894;15.542;2023-08-07T11:01:21;21.00;92.30
11569;DHT22;5840;46.894;15.542;2023-08-07T11:03:51;21.20;93.60
11569;DHT22;5840;46.894;15.542;2023-08-07T11:06:22;21.40;95.80
11569;DHT22;5840;46.894;15.542;2023-08-07T11:08:49;21.70;93.30
11569;DHT22;5840;46.894;15.542;2023-08-07T11:11:16;21.90;91.20
11569;DHT22;5840;46.894;15.542;2023-08-07T11:13:43;21.90;92.60
11569;DHT22;5840;46.894;15.542;2023-08-07T11:16:11;21.90;91.40
11569;DHT22;5840;46.894;15.542;2023-08-07T11:18:38;22.10;94.00
11569;DHT22;5840;46.894;15.542;2023-08-07T11:21:08;22.20;92.40
11569;DHT22;5840;46.894;15.542;2023-08-07T11:23:36;22.10;89.50
11569;DHT22;5840;46.894;15.542;2023-08-07T11:26:03;22.10;90.40
11569;DHT22;5840;46.894;15.542;2023-08-07T11:28:30;22.10;91.50
11569;DHT22;5840;46.894;15.542;2023-08-07T11:30:57;22.00;91.80
11569;DHT22;5840;46.894;15.542;2023-08-07T11:33:25;22.00;91.70
11569;DHT22;5840;46.894;15.542;2023-08-07T11:35:52;21.90;93.00
11569;DHT22;5840;46.894;15.542;2023-08-07T11:38:31;21.90;91.30
11569;DHT22;5840;46.894;15.542;2023-08-07T11:40:59;21.90;92.10
11569;DHT22;5840;46.894;15.542;2023-08-07T11:43:27;21.80;91.40
11569;DHT22;5840;46.894;15.542;2023-08-07T11:45:55;21.80;89.80
11569;DHT22;5840;46.894;15.542;2023-08-07T11:48:24;21.70;90.70
11569;DHT22;5840;46.894;15.542;2023-08-07T11:50:52;21.60;89.40
11569;DHT22;5840;46.894;15.542;2023-08-07T11:53:19;21.60;89.30
11569;DHT22;5840;46.894;15.542;2023-08-07T11:55:51;21.50;90.40
11569;DHT22;5840;46.894;15.542;2023-08-07T11:58:20;21.50;91.20
11569;DHT22;5840;46.894;15.542;2023-08-07T12:00:47;21.40;88.10
11569;DHT22;5840;46.894;15.542;2023-08-07T12:03:24;21.20;86.10
11569;DHT22;5840;46.894;15.542;2023-08-07T12:05:52;21.10;85.90
11569;DHT22;5840;46.894;15.542;2023-08-07T12:08:19;21.00;89.10
11569;DHT22;5840;46.894;15.542;2023-08-07T12:10:50;21.00;88.50
11569;DHT22;5840;46.894;15.542;2023-08-07T12:13:20;21.00;88.10
11569;DHT22;5840;46.894;15.542;2023-08-07T12:15:51;21.10;91.20
11569;DHT22;5840;46.894;15.542;2023-08-07T12:18:19;21.10;90.00
11569;DHT22;5840;46.894;15.542;2023-08-07T12:20:46;21.00;88.20
11569;DHT22;5840;46.894;15.542;2023-08-07T12:23:14;20.90;88.30
11569;DHT22;5840;46.894;15.542;2023-08-07T12:25:42;20.80;87.90
11569;DHT22;5840;46.894;15.542;2023-08-07T12:28:10;20.90;92.40
11569;DHT22;5840;46.894;15.542;2023-08-07T12:30:37;20.90;90.80
11569;DHT22;5840;46.894;15.542;2023-08-07T12:33:04;21.00;90.90
11569;DHT22;5840;46.894;15.542;2023-08-07T12:35:33;21.10;91.60
11569;DHT22;5840;46.894;15.542;2023-08-07T12:38:00;21.10;91.20
11569;DHT22;5840;46.894;15.542;2023-08-07T12:40:28;21.10;89.60
11569;DHT22;5840;46.894;15.542;2023-08-07T12:42:55;21.10;88.40
11569;DHT22;5840;46.894;15.542;2023-08-07T12:45:24;21.10;89.70
11569;DHT22;5840;46.894;15.542;2023-08-07T12:47:51;21.10;85.80
11569;DHT22;5840;46.894;15.542;2023-08-07T12:50:18;21.10;90.80
11569;DHT22;5840;46.894;15.542;2023-08-07T12:52:44;21.20;91.70
11569;DHT22;5840;46.894;15.542;2023-08-07T12:55:11;21.30;92.00
11569;DHT22;5840;46.894;15.542;2023-08-07T12:57:40;21.30;90.10
11569;DHT22;5840;46.894;15.542;2023-08-07T13:00:08;21.10;86.40
11569;DHT22;5840;46.894;15.542;2023-08-07T13:02:39;21.00;88.90
11569;DHT22;5840;46.894;15.542;2023-08-07T13:05:07;21.00;91.60
11569;DHT22;5840;46.894;15.542;2023-08-07T13:07:34;21.00;92.50
11569;DHT22;5840;46.894;15.542;2023-08-07T13:10:01;21.00;90.50
11569;DHT22;5840;46.894;15.542;2023-08-07T13:12:28;21.00;90.20
11569;DHT22;5840;46.894;15.542;2023-08-07T13:14:55;21.00;92.00
11569;DHT22;5840;46.894;15.542;2023-08-07T13:17:22;20.90;88.50
11569;DHT22;5840;46.894;15.542;2023-08-07T13:19:50;20.90;88.40
11569;DHT22;5840;46.894;15.542;2023-08-07T13:22:17;20.90;90.60
11569;DHT22;5840;46.894;15.542;2023-08-07T13:24:44;21.00;87.40
11569;DHT22;5840;46.894;15.542;2023-08-07T13:27:11;21.00;90.50
11569;DHT22;5840;46.894;15.542;2023-08-07T13:29:38;21.10;93.40
11569;DHT22;5840;46.894;15.542;2023-08-07T13:32:06;21.10;89.80
11569;DHT22;5840;46.894;15.542;2023-08-07T13:34:35;21.20;89.10
11569;DHT22;5840;46.894;15.542;2023-08-07T13:37:04;21.30;90.10
11569;DHT22;5840;46.894;15.542;2023-08-07T13:39:32;21.30;90.60
11569;DHT22;5840;46.894;15.542;2023-08-07T13:41:59;21.40;88.90
11569;DHT22;5840;46.894;15.542;2023-08-07T13:44:27;21.50;89.40
11569;DHT22;5840;46.894;15.542;2023-08-07T13:46:54;21.50;90.70
11569;DHT22;5840;46.894;15.542;2023-08-07T13:49:23;21.60;90.80
11569;DHT22;5840;46.894;15.542;2023-08-07T13:51:51;21.60;89.80
11569;DHT22;5840;46.894;15.542;2023-08-07T13:54:22;21.60;90.30
11569;DHT22;5840;46.894;15.542;2023-08-07T13:56:50;21.50;90.80
11569;DHT22;5840;46.894;15.542;2023-08-07T13:59:19;21.50;88.40
11569;DHT22;5840;46.894;15.542;2023-08-07T14:01:48;21.40;86.40
11569;DHT22;5840;46.894;15.542;2023-08-07T14:04:18;21.40;87.50
11569;DHT22;5840;46.894;15.542;2023-08-07T14:06:47;21.40;89.50
11569;DHT22;5840;46.894;15.542;2023-08-07T14:09:15;21.40;88.30
11569;DHT22;5840;46.894;15.542;2023-08-07T14:11:47;21.40;88.60
11569;DHT22;5840;46.894;15.542;2023-08-07T14:14:15;21.50;89.70
11569;DHT22;5840;46.894;15.542;2023-08-07T14:16:44;21.60;88.80
11569;DHT22;5840;46.894;15.542;2023-08-07T14:19:12;21.60;88.80
11569;DHT22;5840;46.894;15.542;2023-08-07T14:21:39;21.50;85.10
11569;DHT22;5840;46.894;15.542;2023-08-07T14:24:06;21.50;88.50
11569;DHT22;5840;46.894;15.542;2023-08-07T14:26:33;21.50;88.70
11569;DHT22;5840;46.894;15.542;2023-08-07T14:29:01;21.50;86.80
11569;DHT22;5840;46.894;15.542;2023-08-07T14:31:28;21.50;90.70
11569;DHT22;5840;46.894;15.542;2023-08-07T14:33:55;21.40;90.00
11569;DHT22;5840;46.894;15.542;2023-08-07T14:36:23;21.40;89.20
11569;DHT22;5840;46.894;15.542;2023-08-07T14:38:50;21.40;86.80
11569;DHT22;5840;46.894;15.542;2023-08-07T14:41:17;21.30;87.00
11569;DHT22;5840;46.894;15.542;2023-08-07T14:43:44;21.20;86.00
11569;DHT22;5840;46.894;15.542;2023-08-07T14:46:14;21.20;89.10
11569;DHT22;5840;46.894;15.542;2023-08-07T14:48:41;21.30;90.70
11569;DHT22;5840;46.894;15.542;2023-08-07T14:51:08;21.40;92.70
11569;DHT22;5840;46.894;15.542;2023-08-07T14:53:34;21.40;91.00
11569;DHT22;5840;46.894;15.542;2023-08-07T14:56:01;21.50;89.80
11569;DHT22;5840;46.894;15.542;2023-08-07T14:58:29;21.50;91.00
11569;DHT22;5840;46.894;15.542;2023-08-07T15:00:58;21.50;91.10
11569;DHT22;5840;46.894;15.542;2023-08-07T15:03:26;21.40;90.60
11569;DHT22;5840;46.894;15.542;2023-08-07T15:05:53;21.30;91.10
11569;DHT22;5840;46.894;15.542;2023-08-07T15:08:20;21.20;91.80
11569;DHT22;5840;46.894;15.542;2023-08-07T15:10:47;21.10;91.70
11569;DHT22;5840;46.894;15.542;2023-08-07T15:13:14;20.90;92.30
11569;DHT22;5840;46.894;15.542;2023-08-07T15:15:41;20.80;91.00
11569;DHT22;5840;46.894;15.542;2023-08-07T15:18:08;20.60;91.60
11569;DHT22;5840;46.894;15.542;2023-08-07T15:20:36;20.40;91.60
11569;DHT22;5840;46.894;15.542;2023-08-07T15:23:03;20.30;90.90
11569;DHT22;5840;46.894;15.542;2023-08-07T15:25:30;20.10;91.60
11569;DHT22;5840;46.894;15.542;2023-08-07T15:27:58;20.00;91.90
11569;DHT22;5840;46.894;15.542;2023-08-07T15:30:27;19.90;92.40
11569;DHT22;5840;46.894;15.542;2023-08-07T15:32:56;19.80;92.90
11569;DHT22;5840;46.894;15.542;2023-08-07T15:35:24;19.80;93.80